sensor_id;sensor_type;location;lat;lon;timestamp;P1;durP1;ratioP1;P2;durP2;ratioP2
65871;SDS011;52653;50.080;21.992;2023-03-03T00:00:20;177.30;;;94.70;;
65871;SDS011;52653;50.080;21.992;2023-03-03T00:03:19;195.70;;;103.90;;
65871;SDS011;52653;50.080;21.992;2023-03-03T00:05:59;198.10;;;107.20;;
65871;SDS011;52653;50.080;21.992;2023-03-03T00:08:52;199.90;;;105.70;;
65871;SDS011;52653;50.080;21.992;2023-03-03T00:11:45;210.70;;;109.00;;
65871;SDS011;52653;50.080;21.992;2023-03-03T00:14:58;222.10;;;111.60;;
65871;SDS011;52653;50.080;21.992;2023-03-03T00:17:34;206.00;;;107.60;;
65871;SDS011;52653;50.080;21.992;2023-03-03T00:20:28;189.40;;;100.80;;
65871;SDS011;52653;50.080;21.992;2023-03-03T00:26:28;196.50;;;102.50;;
65871;SDS011;52653;50.080;21.992;2023-03-03T00:29:29;206.50;;;108.80;;
65871;SDS011;52653;50.080;21.992;2023-03-03T00:32:25;216.30;;;112.30;;
65871;SDS011;52653;50.080;21.992;2023-03-03T00:35:24;223.90;;;115.30;;
65871;SDS011;52653;50.080;21.992;2023-03-03T00:38:18;201.20;;;106.20;;
65871;SDS011;52653;50.080;21.992;2023-03-03T00:41:14;210.30;;;110.30;;
65871;SDS011;52653;50.080;21.992;2023-03-03T00:44:28;188.10;;;95.40;;
65871;SDS011;52653;50.080;21.992;2023-03-03T00:47:34;183.80;;;91.40;;
65871;SDS011;52653;50.080;21.992;2023-03-03T00:50:32;168.60;;;86.60;;
65871;SDS011;52653;50.080;21.992;2023-03-03T00:53:25;173.20;;;90.40;;
65871;SDS011;52653;50.080;21.992;2023-03-03T00:56:20;173.80;;;93.20;;
65871;SDS011;52653;50.080;21.992;2023-03-03T00:59:13;180.90;;;96.30;;
65871;SDS011;52653;50.080;21.992;2023-03-03T01:02:06;182.20;;;93.80;;
65871;SDS011;52653;50.080;21.992;2023-03-03T01:05:00;192.90;;;95.70;;
65871;SDS011;52653;50.080;21.992;2023-03-03T01:07:52;193.40;;;100.50;;
65871;SDS011;52653;50.080;21.992;2023-03-03T01:10:47;190.00;;;101.40;;
65871;SDS011;52653;50.080;21.992;2023-03-03T01:13:42;185.20;;;98.30;;
65871;SDS011;52653;50.080;21.992;2023-03-03T01:16:37;187.50;;;101.40;;
65871;SDS011;52653;50.080;21.992;2023-03-03T01:19:24;193.90;;;98.20;;
65871;SDS011;52653;50.080;21.992;2023-03-03T01:22:17;192.40;;;97.50;;
65871;SDS011;52653;50.080;21.992;2023-03-03T01:25:10;186.70;;;96.50;;
65871;SDS011;52653;50.080;21.992;2023-03-03T01:28:03;189.30;;;96.50;;
65871;SDS011;52653;50.080;21.992;2023-03-03T01:31:00;189.10;;;97.60;;
65871;SDS011;52653;50.080;21.992;2023-03-03T01:33:46;187.00;;;96.00;;
65871;SDS011;52653;50.080;21.992;2023-03-03T01:36:41;193.10;;;98.50;;
65871;SDS011;52653;50.080;21.992;2023-03-03T01:39:33;195.20;;;101.30;;
65871;SDS011;52653;50.080;21.992;2023-03-03T01:42:25;185.40;;;93.50;;
65871;SDS011;52653;50.080;21.992;2023-03-03T01:45:19;190.40;;;97.80;;
65871;SDS011;52653;50.080;21.992;2023-03-03T01:48:15;179.80;;;94.40;;
65871;SDS011;52653;50.080;21.992;2023-03-03T01:51:04;183.60;;;95.00;;
65871;SDS011;52653;50.080;21.992;2023-03-03T01:54:08;179.20;;;96.20;;
65871;SDS011;52653;50.080;21.992;2023-03-03T01:57:09;176.10;;;92.00;;
65871;SDS011;52653;50.080;21.992;2023-03-03T02:00:07;174.50;;;91.80;;
65871;SDS011;52653;50.080;21.992;2023-03-03T02:02:56;163.40;;;86.10;;
65871;SDS011;52653;50.080;21.992;2023-03-03T02:05:49;160.60;;;90.00;;
65871;SDS011;52653;50.080;21.992;2023-03-03T02:08:38;149.60;;;83.80;;
65871;SDS011;52653;50.080;21.992;2023-03-03T02:11:35;156.90;;;87.10;;
65871;SDS011;52653;50.080;21.992;2023-03-03T02:14:31;143.60;;;81.90;;
65871;SDS011;52653;50.080;21.992;2023-03-03T02:17:17;138.30;;;77.60;;
65871;SDS011;52653;50.080;21.992;2023-03-03T02:20:11;135.80;;;74.60;;
65871;SDS011;52653;50.080;21.992;2023-03-03T02:23:12;129.90;;;72.80;;
65871;SDS011;52653;50.080;21.992;2023-03-03T02:26:13;137.00;;;73.00;;
65871;SDS011;52653;50.080;21.992;2023-03-03T02:29:08;135.10;;;74.80;;
65871;SDS011;52653;50.080;21.992;2023-03-03T02:31:54;137.20;;;74.70;;
65871;SDS011;52653;50.080;21.992;2023-03-03T02:34:48;141.70;;;78.60;;
65871;SDS011;52653;50.080;21.992;2023-03-03T02:37:35;155.60;;;82.20;;
65871;SDS011;52653;50.080;21.992;2023-03-03T02:40:28;147.30;;;80.80;;
65871;SDS011;52653;50.080;21.992;2023-03-03T02:43:15;143.90;;;80.70;;
65871;SDS011;52653;50.080;21.992;2023-03-03T02:46:02;150.00;;;81.70;;
65871;SDS011;52653;50.080;21.992;2023-03-03T02:48:57;149.60;;;83.00;;
65871;SDS011;52653;50.080;21.992;2023-03-03T02:51:50;152.80;;;83.00;;
65871;SDS011;52653;50.080;21.992;2023-03-03T02:54:45;156.70;;;86.00;;
65871;SDS011;52653;50.080;21.992;2023-03-03T02:57:38;152.50;;;83.50;;
65871;SDS011;52653;50.080;21.992;2023-03-03T03:00:27;156.80;;;87.00;;
65871;SDS011;52653;50.080;21.992;2023-03-03T03:03:20;155.90;;;86.40;;
65871;SDS011;52653;50.080;21.992;2023-03-03T03:06:14;154.50;;;86.00;;
65871;SDS011;52653;50.080;21.992;2023-03-03T03:09:07;161.90;;;90.40;;
65871;SDS011;52653;50.080;21.992;2023-03-03T03:12:01;158.60;;;96.40;;
65871;SDS011;52653;50.080;21.992;2023-03-03T03:14:54;148.80;;;84.00;;
65871;SDS011;52653;50.080;21.992;2023-03-03T03:17:47;150.40;;;85.40;;
65871;SDS011;52653;50.080;21.992;2023-03-03T03:20:34;136.20;;;82.50;;
65871;SDS011;52653;50.080;21.992;2023-03-03T03:23:30;144.60;;;82.70;;
65871;SDS011;52653;50.080;21.992;2023-03-03T03:26:24;130.80;;;77.00;;
65871;SDS011;52653;50.080;21.992;2023-03-03T03:29:17;135.50;;;79.10;;
65871;SDS011;52653;50.080;21.992;2023-03-03T03:32:11;137.60;;;79.30;;
65871;SDS011;52653;50.080;21.992;2023-03-03T03:35:04;143.40;;;82.10;;
65871;SDS011;52653;50.080;21.992;2023-03-03T03:37:58;148.50;;;83.60;;
65871;SDS011;52653;50.080;21.992;2023-03-03T03:40:51;155.50;;;86.40;;
65871;SDS011;52653;50.080;21.992;2023-03-03T03:43:38;145.40;;;84.70;;
65871;SDS011;52653;50.080;21.992;2023-03-03T03:46:32;145.50;;;85.40;;
65871;SDS011;52653;50.080;21.992;2023-03-03T03:49:25;149.80;;;85.70;;
65871;SDS011;52653;50.080;21.992;2023-03-03T03:52:19;145.70;;;81.90;;
65871;SDS011;52653;50.080;21.992;2023-03-03T03:55:12;147.30;;;82.50;;
65871;SDS011;52653;50.080;21.992;2023-03-03T03:58:06;142.60;;;82.70;;
65871;SDS011;52653;50.080;21.992;2023-03-03T04:01:02;139.40;;;81.50;;
65871;SDS011;52653;50.080;21.992;2023-03-03T04:03:56;140.80;;;82.30;;
65871;SDS011;52653;50.080;21.992;2023-03-03T04:06:48;150.60;;;89.10;;
65871;SDS011;52653;50.080;21.992;2023-03-03T04:09:34;155.70;;;89.00;;
65871;SDS011;52653;50.080;21.992;2023-03-03T04:12:28;150.70;;;88.10;;
65871;SDS011;52653;50.080;21.992;2023-03-03T04:15:27;156.80;;;92.10;;
65871;SDS011;52653;50.080;21.992;2023-03-03T04:18:13;154.90;;;90.60;;
65871;SDS011;52653;50.080;21.992;2023-03-03T04:21:08;155.10;;;89.00;;
65871;SDS011;52653;50.080;21.992;2023-03-03T04:24:04;159.80;;;95.60;;
65871;SDS011;52653;50.080;21.992;2023-03-03T04:26:58;161.50;;;91.70;;
65871;SDS011;52653;50.080;21.992;2023-03-03T04:29:51;157.90;;;87.30;;
65871;SDS011;52653;50.080;21.992;2023-03-03T04:32:45;162.50;;;89.80;;
65871;SDS011;52653;50.080;21.992;2023-03-03T04:35:39;158.90;;;85.60;;
65871;SDS011;52653;50.080;21.992;2023-03-03T04:38:32;145.10;;;81.30;;
65871;SDS011;52653;50.080;21.992;2023-03-03T04:41:25;131.40;;;74.30;;
65871;SDS011;52653;50.080;21.992;2023-03-03T04:44:18;135.70;;;73.70;;
65871;SDS011;52653;50.080;21.992;2023-03-03T04:47:11;130.20;;;70.40;;
65871;SDS011;52653;50.080;21.992;2023-03-03T04:50:07;133.20;;;69.30;;
65871;SDS011;52653;50.080;21.992;2023-03-03T04:52:52;134.10;;;69.00;;
65871;SDS011;52653;50.080;21.992;2023-03-03T04:55:45;142.20;;;77.30;;
65871;SDS011;52653;50.080;21.992;2023-03-03T04:58:39;143.00;;;75.50;;
65871;SDS011;52653;50.080;21.992;2023-03-03T05:01:33;142.70;;;76.40;;
65871;SDS011;52653;50.080;21.992;2023-03-03T05:04:26;163.90;;;88.90;;
65871;SDS011;52653;50.080;21.992;2023-03-03T05:07:12;166.20;;;92.70;;
65871;SDS011;52653;50.080;21.992;2023-03-03T05:09:59;168.10;;;90.00;;
65871;SDS011;52653;50.080;21.992;2023-03-03T05:12:53;150.70;;;79.60;;
65871;SDS011;52653;50.080;21.992;2023-03-03T05:15:49;143.60;;;75.80;;
65871;SDS011;52653;50.080;21.992;2023-03-03T05:18:43;147.70;;;74.90;;
65871;SDS011;52653;50.080;21.992;2023-03-03T05:21:37;134.10;;;71.80;;
65871;SDS011;52653;50.080;21.992;2023-03-03T05:24:31;139.70;;;74.40;;
65871;SDS011;52653;50.080;21.992;2023-03-03T05:27:24;153.30;;;79.80;;
65871;SDS011;52653;50.080;21.992;2023-03-03T05:30:16;155.90;;;77.50;;
65871;SDS011;52653;50.080;21.992;2023-03-03T05:33:09;152.10;;;78.50;;
65871;SDS011;52653;50.080;21.992;2023-03-03T05:36:06;160.10;;;82.80;;
65871;SDS011;52653;50.080;21.992;2023-03-03T05:38:59;170.80;;;86.20;;
65871;SDS011;52653;50.080;21.992;2023-03-03T05:41:52;159.40;;;81.90;;
65871;SDS011;52653;50.080;21.992;2023-03-03T05:44:45;160.10;;;82.90;;
65871;SDS011;52653;50.080;21.992;2023-03-03T05:47:38;158.20;;;78.80;;
65871;SDS011;52653;50.080;21.992;2023-03-03T05:50:32;139.70;;;75.40;;
65871;SDS011;52653;50.080;21.992;2023-03-03T05:53:26;145.40;;;78.60;;
65871;SDS011;52653;50.080;21.992;2023-03-03T05:56:20;152.70;;;79.60;;
65871;SDS011;52653;50.080;21.992;2023-03-03T05:59:11;147.80;;;77.20;;
65871;SDS011;52653;50.080;21.992;2023-03-03T06:01:59;139.10;;;77.50;;
65871;SDS011;52653;50.080;21.992;2023-03-03T06:04:51;145.30;;;80.60;;
65871;SDS011;52653;50.080;21.992;2023-03-03T06:07:43;142.20;;;78.40;;
65871;SDS011;52653;50.080;21.992;2023-03-03T06:10:37;138.30;;;76.50;;
65871;SDS011;52653;50.080;21.992;2023-03-03T06:13:30;136.40;;;78.20;;
65871;SDS011;52653;50.080;21.992;2023-03-03T06:16:23;137.40;;;78.10;;
65871;SDS011;52653;50.080;21.992;2023-03-03T06:19:09;129.60;;;77.40;;
65871;SDS011;52653;50.080;21.992;2023-03-03T06:22:02;132.70;;;79.10;;
65871;SDS011;52653;50.080;21.992;2023-03-03T06:24:55;134.10;;;76.30;;
65871;SDS011;52653;50.080;21.992;2023-03-03T06:27:47;131.30;;;76.50;;
65871;SDS011;52653;50.080;21.992;2023-03-03T06:30:41;134.50;;;77.70;;
65871;SDS011;52653;50.080;21.992;2023-03-03T06:33:34;134.60;;;77.10;;
65871;SDS011;52653;50.080;21.992;2023-03-03T06:36:27;145.00;;;79.80;;
65871;SDS011;52653;50.080;21.992;2023-03-03T06:39:20;329.80;;;128.00;;
65871;SDS011;52653;50.080;21.992;2023-03-03T06:42:13;113.90;;;68.20;;
65871;SDS011;52653;50.080;21.992;2023-03-03T06:45:12;117.80;;;72.40;;
65871;SDS011;52653;50.080;21.992;2023-03-03T06:48:05;109.30;;;67.60;;
65871;SDS011;52653;50.080;21.992;2023-03-03T06:51:02;111.30;;;67.10;;
65871;SDS011;52653;50.080;21.992;2023-03-03T06:54:12;112.70;;;68.50;;
65871;SDS011;52653;50.080;21.992;2023-03-03T06:57:07;112.20;;;68.30;;
65871;SDS011;52653;50.080;21.992;2023-03-03T07:00:15;109.90;;;64.80;;
65871;SDS011;52653;50.080;21.992;2023-03-03T07:03:07;101.10;;;59.70;;
65871;SDS011;52653;50.080;21.992;2023-03-03T07:06:08;106.00;;;61.60;;
65871;SDS011;52653;50.080;21.992;2023-03-03T07:09:04;134.20;;;82.00;;
65871;SDS011;52653;50.080;21.992;2023-03-03T07:12:11;138.90;;;85.30;;
65871;SDS011;52653;50.080;21.992;2023-03-03T07:15:01;101.30;;;60.90;;
65871;SDS011;52653;50.080;21.992;2023-03-03T07:18:07;103.10;;;64.00;;
65871;SDS011;52653;50.080;21.992;2023-03-03T07:21:19;108.60;;;68.70;;
65871;SDS011;52653;50.080;21.992;2023-03-03T07:24:19;105.50;;;68.40;;
65871;SDS011;52653;50.080;21.992;2023-03-03T07:27:18;118.50;;;72.40;;
65871;SDS011;52653;50.080;21.992;2023-03-03T07:30:21;121.90;;;70.60;;
65871;SDS011;52653;50.080;21.992;2023-03-03T07:33:22;124.00;;;71.50;;
65871;SDS011;52653;50.080;21.992;2023-03-03T07:36:23;110.20;;;64.00;;
65871;SDS011;52653;50.080;21.992;2023-03-03T07:39:20;115.60;;;64.50;;
65871;SDS011;52653;50.080;21.992;2023-03-03T07:42:21;104.50;;;61.60;;
65871;SDS011;52653;50.080;21.992;2023-03-03T07:45:24;101.00;;;62.70;;
65871;SDS011;52653;50.080;21.992;2023-03-03T07:48:15;99.10;;;60.90;;
65871;SDS011;52653;50.080;21.992;2023-03-03T07:51:17;95.70;;;57.80;;
65871;SDS011;52653;50.080;21.992;2023-03-03T07:54:21;97.20;;;59.10;;
65871;SDS011;52653;50.080;21.992;2023-03-03T07:57:26;99.20;;;61.40;;
65871;SDS011;52653;50.080;21.992;2023-03-03T08:03:49;98.70;;;62.50;;
65871;SDS011;52653;50.080;21.992;2023-03-03T08:06:40;98.90;;;62.00;;
65871;SDS011;52653;50.080;21.992;2023-03-03T08:09:41;105.80;;;63.00;;
65871;SDS011;52653;50.080;21.992;2023-03-03T08:12:36;98.70;;;60.20;;
65871;SDS011;52653;50.080;21.992;2023-03-03T08:15:31;100.00;;;58.00;;
65871;SDS011;52653;50.080;21.992;2023-03-03T08:18:28;94.30;;;58.00;;
65871;SDS011;52653;50.080;21.992;2023-03-03T08:21:24;92.70;;;58.50;;
65871;SDS011;52653;50.080;21.992;2023-03-03T08:24:14;97.00;;;57.90;;
65871;SDS011;52653;50.080;21.992;2023-03-03T08:27:07;98.70;;;57.70;;
65871;SDS011;52653;50.080;21.992;2023-03-03T08:30:00;97.70;;;65.00;;
65871;SDS011;52653;50.080;21.992;2023-03-03T08:32:53;109.50;;;68.70;;
65871;SDS011;52653;50.080;21.992;2023-03-03T08:35:46;107.10;;;63.60;;
65871;SDS011;52653;50.080;21.992;2023-03-03T08:38:40;99.40;;;64.90;;
65871;SDS011;52653;50.080;21.992;2023-03-03T08:41:33;105.10;;;63.30;;
65871;SDS011;52653;50.080;21.992;2023-03-03T08:44:21;104.30;;;63.00;;
65871;SDS011;52653;50.080;21.992;2023-03-03T08:47:14;110.30;;;65.10;;
65871;SDS011;52653;50.080;21.992;2023-03-03T08:50:07;103.20;;;60.60;;
65871;SDS011;52653;50.080;21.992;2023-03-03T08:53:01;92.30;;;58.90;;
65871;SDS011;52653;50.080;21.992;2023-03-03T08:55:55;98.60;;;60.70;;
65871;SDS011;52653;50.080;21.992;2023-03-03T08:58:40;84.10;;;52.80;;
65871;SDS011;52653;50.080;21.992;2023-03-03T09:01:51;88.00;;;54.50;;
65871;SDS011;52653;50.080;21.992;2023-03-03T09:04:44;93.50;;;58.70;;
65871;SDS011;52653;50.080;21.992;2023-03-03T09:07:38;102.10;;;63.60;;
65871;SDS011;52653;50.080;21.992;2023-03-03T09:10:33;100.30;;;61.30;;
65871;SDS011;52653;50.080;21.992;2023-03-03T09:13:26;102.70;;;61.20;;
65871;SDS011;52653;50.080;21.992;2023-03-03T09:16:20;96.10;;;60.50;;
65871;SDS011;52653;50.080;21.992;2023-03-03T09:18:59;95.50;;;61.20;;
65871;SDS011;52653;50.080;21.992;2023-03-03T09:22:15;86.20;;;53.30;;
65871;SDS011;52653;50.080;21.992;2023-03-03T09:25:17;85.20;;;50.30;;
65871;SDS011;52653;50.080;21.992;2023-03-03T09:28:11;79.80;;;48.30;;
65871;SDS011;52653;50.080;21.992;2023-03-03T09:31:19;72.80;;;45.10;;
65871;SDS011;52653;50.080;21.992;2023-03-03T09:34:19;62.80;;;39.00;;
65871;SDS011;52653;50.080;21.992;2023-03-03T09:36:59;65.20;;;39.60;;
65871;SDS011;52653;50.080;21.992;2023-03-03T09:40:12;68.20;;;41.90;;
65871;SDS011;52653;50.080;21.992;2023-03-03T09:43:31;66.40;;;39.70;;
65871;SDS011;52653;50.080;21.992;2023-03-03T09:46:35;68.00;;;42.40;;
65871;SDS011;52653;50.080;21.992;2023-03-03T09:49:35;64.60;;;40.50;;
65871;SDS011;52653;50.080;21.992;2023-03-03T09:52:39;67.50;;;41.30;;
65871;SDS011;52653;50.080;21.992;2023-03-03T09:55:42;68.20;;;42.30;;
65871;SDS011;52653;50.080;21.992;2023-03-03T09:58:43;65.30;;;42.30;;
65871;SDS011;52653;50.080;21.992;2023-03-03T10:01:47;67.50;;;42.60;;
65871;SDS011;52653;50.080;21.992;2023-03-03T10:04:57;66.50;;;40.20;;
65871;SDS011;52653;50.080;21.992;2023-03-03T10:08:07;81.30;;;47.60;;
65871;SDS011;52653;50.080;21.992;2023-03-03T10:11:20;78.40;;;48.00;;
65871;SDS011;52653;50.080;21.992;2023-03-03T10:14:14;78.00;;;46.70;;
65871;SDS011;52653;50.080;21.992;2023-03-03T10:17:28;72.70;;;46.40;;
65871;SDS011;52653;50.080;21.992;2023-03-03T10:20:32;77.40;;;47.70;;
65871;SDS011;52653;50.080;21.992;2023-03-03T10:23:52;69.80;;;46.30;;
65871;SDS011;52653;50.080;21.992;2023-03-03T10:26:47;60.60;;;39.80;;
65871;SDS011;52653;50.080;21.992;2023-03-03T10:30:06;54.70;;;35.40;;
65871;SDS011;52653;50.080;21.992;2023-03-03T10:33:28;52.40;;;34.70;;
65871;SDS011;52653;50.080;21.992;2023-03-03T10:39:46;55.70;;;34.20;;
65871;SDS011;52653;50.080;21.992;2023-03-03T10:49:39;52.00;;;33.30;;
65871;SDS011;52653;50.080;21.992;2023-03-03T10:52:43;57.50;;;35.90;;
65871;SDS011;52653;50.080;21.992;2023-03-03T10:55:43;51.20;;;30.50;;
65871;SDS011;52653;50.080;21.992;2023-03-03T10:58:47;52.40;;;35.00;;
65871;SDS011;52653;50.080;21.992;2023-03-03T11:01:49;52.10;;;34.40;;
65871;SDS011;52653;50.080;21.992;2023-03-03T11:04:39;49.00;;;31.90;;
65871;SDS011;52653;50.080;21.992;2023-03-03T11:07:33;49.70;;;32.30;;
65871;SDS011;52653;50.080;21.992;2023-03-03T11:10:36;46.70;;;30.70;;
65871;SDS011;52653;50.080;21.992;2023-03-03T11:13:39;43.40;;;25.80;;
65871;SDS011;52653;50.080;21.992;2023-03-03T11:16:40;45.70;;;29.10;;
65871;SDS011;52653;50.080;21.992;2023-03-03T11:19:42;48.00;;;31.30;;
65871;SDS011;52653;50.080;21.992;2023-03-03T11:22:48;50.60;;;29.90;;
65871;SDS011;52653;50.080;21.992;2023-03-03T11:25:33;44.30;;;29.30;;
65871;SDS011;52653;50.080;21.992;2023-03-03T11:28:49;47.10;;;30.10;;
65871;SDS011;52653;50.080;21.992;2023-03-03T11:32:00;49.10;;;32.50;;
65871;SDS011;52653;50.080;21.992;2023-03-03T11:34:55;48.40;;;30.70;;
65871;SDS011;52653;50.080;21.992;2023-03-03T11:37:56;58.50;;;36.10;;
65871;SDS011;52653;50.080;21.992;2023-03-03T11:41:00;61.30;;;39.60;;
65871;SDS011;52653;50.080;21.992;2023-03-03T11:43:58;72.60;;;45.80;;
65871;SDS011;52653;50.080;21.992;2023-03-03T11:47:00;71.80;;;46.40;;
65871;SDS011;52653;50.080;21.992;2023-03-03T11:49:49;71.60;;;45.70;;
65871;SDS011;52653;50.080;21.992;2023-03-03T11:52:49;70.90;;;44.00;;
65871;SDS011;52653;50.080;21.992;2023-03-03T11:55:51;71.90;;;45.60;;
65871;SDS011;52653;50.080;21.992;2023-03-03T11:58:46;84.40;;;51.70;;
65871;SDS011;52653;50.080;21.992;2023-03-03T12:01:38;79.90;;;48.60;;
65871;SDS011;52653;50.080;21.992;2023-03-03T12:04:38;82.00;;;50.90;;
65871;SDS011;52653;50.080;21.992;2023-03-03T12:07:36;81.40;;;52.60;;
65871;SDS011;52653;50.080;21.992;2023-03-03T12:10:38;75.70;;;50.30;;
65871;SDS011;52653;50.080;21.992;2023-03-03T12:13:45;74.80;;;47.90;;
65871;SDS011;52653;50.080;21.992;2023-03-03T12:16:40;67.00;;;41.20;;
65871;SDS011;52653;50.080;21.992;2023-03-03T12:19:44;67.30;;;41.60;;
65871;SDS011;52653;50.080;21.992;2023-03-03T12:22:43;64.60;;;41.20;;
65871;SDS011;52653;50.080;21.992;2023-03-03T12:25:56;60.80;;;38.60;;
65871;SDS011;52653;50.080;21.992;2023-03-03T12:28:53;55.60;;;36.80;;
65871;SDS011;52653;50.080;21.992;2023-03-03T12:31:53;61.20;;;36.80;;
65871;SDS011;52653;50.080;21.992;2023-03-03T12:34:56;56.40;;;37.20;;
65871;SDS011;52653;50.080;21.992;2023-03-03T12:37:58;56.50;;;37.60;;
65871;SDS011;52653;50.080;21.992;2023-03-03T12:40:48;51.90;;;34.60;;
65871;SDS011;52653;50.080;21.992;2023-03-03T12:43:54;52.80;;;33.70;;
65871;SDS011;52653;50.080;21.992;2023-03-03T12:46:44;53.00;;;34.80;;
65871;SDS011;52653;50.080;21.992;2023-03-03T12:49:44;57.80;;;38.60;;
65871;SDS011;52653;50.080;21.992;2023-03-03T12:53:00;54.60;;;30.80;;
65871;SDS011;52653;50.080;21.992;2023-03-03T12:56:02;50.60;;;32.70;;
65871;SDS011;52653;50.080;21.992;2023-03-03T12:58:58;49.60;;;32.90;;
65871;SDS011;52653;50.080;21.992;2023-03-03T13:01:59;46.90;;;29.40;;
65871;SDS011;52653;50.080;21.992;2023-03-03T13:05:13;44.00;;;27.30;;
65871;SDS011;52653;50.080;21.992;2023-03-03T13:08:19;48.60;;;30.10;;
65871;SDS011;52653;50.080;21.992;2023-03-03T13:11:38;50.10;;;30.60;;
65871;SDS011;52653;50.080;21.992;2023-03-03T13:14:40;53.00;;;35.20;;
65871;SDS011;52653;50.080;21.992;2023-03-03T13:17:39;61.60;;;40.20;;
65871;SDS011;52653;50.080;21.992;2023-03-03T13:20:43;60.40;;;37.70;;
65871;SDS011;52653;50.080;21.992;2023-03-03T13:23:36;59.10;;;38.70;;
65871;SDS011;52653;50.080;21.992;2023-03-03T13:26:38;58.70;;;35.60;;
65871;SDS011;52653;50.080;21.992;2023-03-03T13:29:36;51.80;;;32.00;;
65871;SDS011;52653;50.080;21.992;2023-03-03T13:32:33;49.00;;;30.30;;
65871;SDS011;52653;50.080;21.992;2023-03-03T13:35:36;51.40;;;32.20;;
65871;SDS011;52653;50.080;21.992;2023-03-03T13:38:35;48.70;;;30.80;;
65871;SDS011;52653;50.080;21.992;2023-03-03T13:41:21;48.10;;;30.60;;
65871;SDS011;52653;50.080;21.992;2023-03-03T13:44:19;51.90;;;30.30;;
65871;SDS011;52653;50.080;21.992;2023-03-03T13:47:10;51.40;;;33.10;;
65871;SDS011;52653;50.080;21.992;2023-03-03T13:50:02;48.60;;;29.80;;
65871;SDS011;52653;50.080;21.992;2023-03-03T13:53:21;49.90;;;29.60;;
65871;SDS011;52653;50.080;21.992;2023-03-03T13:56:28;55.50;;;33.40;;
65871;SDS011;52653;50.080;21.992;2023-03-03T13:59:43;53.70;;;32.90;;
65871;SDS011;52653;50.080;21.992;2023-03-03T14:02:46;49.90;;;30.50;;
65871;SDS011;52653;50.080;21.992;2023-03-03T14:05:48;58.40;;;33.80;;
65871;SDS011;52653;50.080;21.992;2023-03-03T14:12:02;49.90;;;31.60;;
65871;SDS011;52653;50.080;21.992;2023-03-03T14:14:58;43.10;;;26.30;;
65871;SDS011;52653;50.080;21.992;2023-03-03T14:21:13;44.80;;;26.60;;
65871;SDS011;52653;50.080;21.992;2023-03-03T14:24:10;47.60;;;28.90;;
65871;SDS011;52653;50.080;21.992;2023-03-03T14:27:13;45.00;;;23.50;;
65871;SDS011;52653;50.080;21.992;2023-03-03T14:29:59;72.80;;;32.90;;
65871;SDS011;52653;50.080;21.992;2023-03-03T14:33:18;205.00;;;69.10;;
65871;SDS011;52653;50.080;21.992;2023-03-03T14:36:12;48.80;;;27.60;;
65871;SDS011;52653;50.080;21.992;2023-03-03T14:38:57;48.00;;;25.80;;
65871;SDS011;52653;50.080;21.992;2023-03-03T14:41:42;46.50;;;25.40;;
65871;SDS011;52653;50.080;21.992;2023-03-03T14:44:52;60.20;;;32.00;;
65871;SDS011;52653;50.080;21.992;2023-03-03T14:47:37;56.50;;;29.60;;
65871;SDS011;52653;50.080;21.992;2023-03-03T14:50:36;57.40;;;30.40;;
65871;SDS011;52653;50.080;21.992;2023-03-03T14:53:32;57.80;;;28.60;;
65871;SDS011;52653;50.080;21.992;2023-03-03T14:56:28;46.90;;;25.60;;
65871;SDS011;52653;50.080;21.992;2023-03-03T14:59:24;41.40;;;25.00;;
65871;SDS011;52653;50.080;21.992;2023-03-03T15:05:21;47.70;;;24.20;;
65871;SDS011;52653;50.080;21.992;2023-03-03T15:08:10;49.80;;;27.00;;
65871;SDS011;52653;50.080;21.992;2023-03-03T15:11:17;46.10;;;24.70;;
65871;SDS011;52653;50.080;21.992;2023-03-03T15:14:11;49.50;;;24.70;;
65871;SDS011;52653;50.080;21.992;2023-03-03T15:17:18;49.50;;;27.00;;
65871;SDS011;52653;50.080;21.992;2023-03-03T15:20:23;48.40;;;26.60;;
65871;SDS011;52653;50.080;21.992;2023-03-03T15:23:36;47.90;;;25.20;;
65871;SDS011;52653;50.080;21.992;2023-03-03T15:26:42;46.50;;;24.40;;
65871;SDS011;52653;50.080;21.992;2023-03-03T15:29:20;50.80;;;25.00;;
65871;SDS011;52653;50.080;21.992;2023-03-03T15:32:03;47.80;;;24.10;;
65871;SDS011;52653;50.080;21.992;2023-03-03T15:34:50;45.60;;;24.50;;
65871;SDS011;52653;50.080;21.992;2023-03-03T15:37:32;49.00;;;23.60;;
65871;SDS011;52653;50.080;21.992;2023-03-03T15:40:15;48.90;;;25.00;;
65871;SDS011;52653;50.080;21.992;2023-03-03T15:43:00;46.60;;;24.40;;
65871;SDS011;52653;50.080;21.992;2023-03-03T15:45:43;47.70;;;25.90;;
65871;SDS011;52653;50.080;21.992;2023-03-03T15:48:27;46.10;;;25.30;;
65871;SDS011;52653;50.080;21.992;2023-03-03T15:51:18;43.60;;;23.20;;
65871;SDS011;52653;50.080;21.992;2023-03-03T15:54:13;46.20;;;24.00;;
65871;SDS011;52653;50.080;21.992;2023-03-03T15:57:13;40.90;;;21.40;;
65871;SDS011;52653;50.080;21.992;2023-03-03T15:59:57;47.10;;;23.60;;
65871;SDS011;52653;50.080;21.992;2023-03-03T16:02:51;39.70;;;20.30;;
65871;SDS011;52653;50.080;21.992;2023-03-03T16:05:29;47.70;;;23.20;;
65871;SDS011;52653;50.080;21.992;2023-03-03T16:08:08;41.10;;;20.70;;
65871;SDS011;52653;50.080;21.992;2023-03-03T16:10:49;42.80;;;20.50;;
65871;SDS011;52653;50.080;21.992;2023-03-03T16:13:36;40.40;;;21.10;;
65871;SDS011;52653;50.080;21.992;2023-03-03T16:16:32;49.40;;;26.10;;
65871;SDS011;52653;50.080;21.992;2023-03-03T16:19:15;50.50;;;24.10;;
65871;SDS011;52653;50.080;21.992;2023-03-03T16:22:14;50.00;;;25.40;;
65871;SDS011;52653;50.080;21.992;2023-03-03T16:25:04;52.60;;;29.70;;
65871;SDS011;52653;50.080;21.992;2023-03-03T16:27:50;54.40;;;26.40;;
65871;SDS011;52653;50.080;21.992;2023-03-03T16:30:32;51.20;;;26.80;;
65871;SDS011;52653;50.080;21.992;2023-03-03T16:33:13;52.70;;;24.50;;
65871;SDS011;52653;50.080;21.992;2023-03-03T16:35:53;55.80;;;25.40;;
65871;SDS011;52653;50.080;21.992;2023-03-03T16:38:37;47.30;;;23.60;;
65871;SDS011;52653;50.080;21.992;2023-03-03T16:41:13;48.20;;;23.80;;
65871;SDS011;52653;50.080;21.992;2023-03-03T16:43:53;48.50;;;24.50;;
65871;SDS011;52653;50.080;21.992;2023-03-03T16:46:36;57.60;;;26.40;;
65871;SDS011;52653;50.080;21.992;2023-03-03T16:49:13;53.00;;;26.40;;
65871;SDS011;52653;50.080;21.992;2023-03-03T16:51:57;48.40;;;23.50;;
65871;SDS011;52653;50.080;21.992;2023-03-03T16:54:38;49.80;;;23.70;;
65871;SDS011;52653;50.080;21.992;2023-03-03T16:57:25;45.90;;;22.70;;
65871;SDS011;52653;50.080;21.992;2023-03-03T17:00:04;53.30;;;24.80;;
65871;SDS011;52653;50.080;21.992;2023-03-03T17:02:45;51.10;;;25.30;;
65871;SDS011;52653;50.080;21.992;2023-03-03T17:05:32;50.80;;;23.90;;
65871;SDS011;52653;50.080;21.992;2023-03-03T17:08:24;48.30;;;23.90;;